Time;durP1;ratioP1;P1;durP2;ratioP2;P2;SDS_P1;SDS_P2;PMS_P1;PMS_P2;Temp;Humidity;BMP_temperature;BMP_pressure;BME280_temperature;BME280_humidity;BME280_pressure;Samples;Min_cycle;Max_cycle;Signal;HPM_P1;HPM_P2
2022/11/13 00:02:08;;;;;;;56.80;25.50;;;13.20;99.90;;;;;;5089712;28;20439;-72
2022/11/13 00:04:34;;;;;;;59.58;26.05;;;13.20;99.90;;;;;;5076540;28;20055;-73
2022/11/13 00:07:00;;;;;;;58.38;25.40;;;13.20;99.90;;;;;;5092847;28;20522;-72
2022/11/13 00:09:25;;;;;;;59.75;26.60;;;13.20;99.90;;;;;;5094445;28;20031;-73
2022/11/13 00:11:51;;;;;;;54.67;25.17;;;13.20;99.90;;;;;;5093351;28;20023;-73
2022/11/13 00:14:17;;;;;;;56.00;25.17;;;13.10;99.90;;;;;;5073490;28;20035;-73
2022/11/13 00:16:42;;;;;;;55.22;24.40;;;13.20;99.90;;;;;;5095089;28;20044;-72
2022/11/13 00:19:08;;;;;;;53.75;23.92;;;13.20;99.90;;;;;;5076062;28;20030;-73
2022/11/13 00:21:33;;;;;;;47.75;22.42;;;13.20;99.90;;;;;;5095111;28;20024;-73
2022/11/13 00:23:59;;;;;;;44.67;22.77;;;13.20;99.90;;;;;;5077662;28;20032;-72
2022/11/13 00:26:29;;;;;;;49.70;22.52;;;13.20;99.90;;;;;;5072228;28;20051;-72
2022/11/13 00:28:58;;;;;;;48.50;23.77;;;13.30;99.90;;;;;;5070717;28;20051;-72
2022/11/13 00:31:25;;;;;;;45.20;22.42;;;13.30;99.90;;;;;;5067214;28;20056;-72
2022/11/13 00:33:50;;;;;;;46.72;22.52;;;13.30;99.90;;;;;;5091534;28;20039;-73
2022/11/13 00:36:22;;;;;;;43.42;22.27;;;13.20;99.70;;;;;;5072752;28;20024;-72
2022/11/13 00:38:48;;;;;;;43.97;22.90;;;13.30;99.80;;;;;;5093068;28;20031;-72
2022/11/13 00:41:13;;;;;;;44.83;23.67;;;13.30;99.70;;;;;;5072639;28;20100;-73
2022/11/13 00:43:39;;;;;;;47.58;22.98;;;13.30;99.50;;;;;;5092472;28;20175;-72
2022/11/13 00:46:05;;;;;;;49.05;23.27;;;13.20;99.50;;;;;;5089886;28;20043;-72
2022/11/13 00:48:31;;;;;;;47.08;22.95;;;13.20;99.60;;;;;;5093639;28;20023;-72
2022/11/13 00:50:57;;;;;;;45.25;22.77;;;13.20;99.60;;;;;;5077005;28;20321;-72
2022/11/13 00:53:22;;;;;;;41.95;22.13;;;13.20;99.50;;;;;;5095186;28;20362;-73
2022/11/13 00:55:48;;;;;;;44.97;21.60;;;13.20;99.60;;;;;;5092749;28;20043;-72
2022/11/13 00:58:15;;;;;;;42.10;21.88;;;13.20;99.40;;;;;;5093382;28;20024;-72
2022/11/13 01:00:42;;;;;;;38.63;21.15;;;13.10;99.40;;;;;;5076074;28;20175;-72
2022/11/13 01:03:09;;;;;;;41.63;21.75;;;13.10;99.40;;;;;;5090666;28;20032;-73
2022/11/13 01:05:40;;;;;;;44.28;22.50;;;13.10;99.50;;;;;;5091432;28;20076;-71
2022/11/13 01:08:07;;;;;;;50.83;22.73;;;13.00;99.40;;;;;;5074407;28;20035;-71
2022/11/13 01:10:37;;;;;;;50.67;23.60;;;13.00;99.40;;;;;;5090586;28;20364;-73
2022/11/13 01:13:03;;;;;;;51.23;23.93;;;13.00;99.50;;;;;;5093116;28;20047;-72
2022/11/13 01:15:28;;;;;;;45.22;21.88;;;13.00;99.70;;;;;;5093730;28;20024;-72
2022/11/13 01:17:54;;;;;;;47.78;23.55;;;13.00;99.70;;;;;;5068764;28;20613;-71
2022/11/13 01:20:21;;;;;;;53.80;22.38;;;13.00;99.70;;;;;;5076359;28;20031;-73
2022/11/13 01:22:47;;;;;;;56.40;23.95;;;12.90;99.70;;;;;;5091375;28;20088;-72
2022/11/13 01:25:12;;;;;;;54.03;23.05;;;12.90;99.80;;;;;;5074468;28;20049;-72
2022/11/13 01:27:38;;;;;;;55.72;24.58;;;12.90;99.80;;;;;;5091689;28;20024;-72
2022/11/13 01:30:05;;;;;;;55.38;24.52;;;12.90;99.80;;;;;;5092255;28;20028;-71
2022/11/13 01:32:31;;;;;;;47.47;22.15;;;12.80;99.90;;;;;;5092807;28;20031;-73
2022/11/13 01:34:56;;;;;;;49.83;23.02;;;12.90;99.90;;;;;;5093819;28;20545;-73
2022/11/13 01:37:22;;;;;;;49.83;23.52;;;12.80;99.90;;;;;;5076005;28;20027;-72
2022/11/13 01:39:48;;;;;;;48.08;22.38;;;12.80;99.90;;;;;;5091536;28;20032;-72
2022/11/13 01:42:14;;;;;;;51.95;21.98;;;12.90;99.90;;;;;;5093741;28;20436;-72
2022/11/13 01:44:55;;;;;;;48.83;21.70;;;12.80;99.90;;;;;;5090280;28;20028;-72
2022/11/13 01:47:22;;;;;;;47.78;21.45;;;12.90;99.90;;;;;;5073762;28;20058;-72
2022/11/13 01:49:51;;;;;;;49.92;22.40;;;12.90;99.90;;;;;;5090420;28;20115;-72
2022/11/13 01:52:21;;;;;;;51.22;21.67;;;12.80;99.80;;;;;;5091869;28;20034;-72
2022/11/13 01:54:57;;;;;;;54.42;21.98;;;12.80;99.90;;;;;;5091909;28;20038;-72
2022/11/13 01:57:23;;;;;;;57.65;23.33;;;12.80;99.90;;;;;;5093168;28;20388;-72
2022/11/13 01:59:53;;;;;;;48.75;21.27;;;12.80;99.90;;;;;;5089619;28;20115;-73
2022/11/13 02:02:19;;;;;;;53.75;21.92;;;12.90;99.90;;;;;;5077051;28;20036;-72
2022/11/13 02:04:45;;;;;;;44.97;20.83;;;12.90;99.90;;;;;;5090497;28;20047;-73
2022/11/13 02:07:14;;;;;;;47.45;21.38;;;12.90;99.90;;;;;;5091074;28;20043;-72
2022/11/13 02:09:42;;;;;;;48.42;20.33;;;12.90;99.80;;;;;;5065917;28;20028;-72
2022/11/13 02:12:11;;;;;;;46.58;21.80;;;13.00;99.80;;;;;;5071473;28;20028;-72
2022/11/13 02:14:44;;;;;;;43.20;19.00;;;13.00;99.80;;;;;;5090585;28;20049;-72
2022/11/13 02:17:15;;;;;;;40.03;19.50;;;13.00;99.80;;;;;;5090588;28;20031;-72
2022/11/13 02:19:45;;;;;;;47.80;21.02;;;13.10;99.60;;;;;;5079407;28;20481;-73
2022/11/13 02:22:14;;;;;;;44.15;21.55;;;13.00;99.60;;;;;;5091283;28;20403;-73
2022/11/13 02:24:42;;;;;;;49.58;21.92;;;13.00;99.60;;;;;;5093482;28;20027;-72
2022/11/13 02:27:18;;;;;;;58.10;23.48;;;12.90;99.70;;;;;;5092826;28;20096;-72
2022/11/13 02:29:44;;;;;;;62.38;22.75;;;12.90;99.90;;;;;;5071414;28;20071;-73
2022/11/13 02:32:10;;;;;;;59.13;23.35;;;12.90;99.90;;;;;;5072308;28;20028;-73
2022/11/13 02:34:35;;;;;;;58.50;22.08;;;12.90;99.90;;;;;;5087407;28;20479;-72
2022/11/13 02:37:01;;;;;;;50.72;21.83;;;12.90;99.90;;;;;;5089013;28;20028;-72
2022/11/13 02:39:26;;;;;;;46.95;20.80;;;13.00;99.90;;;;;;5079863;28;20024;-73
2022/11/13 02:41:52;;;;;;;56.70;23.13;;;13.00;99.90;;;;;;5095320;28;20031;-72
2022/11/13 02:44:18;;;;;;;60.10;22.73;;;13.00;99.90;;;;;;5089465;28;20429;-72
2022/11/13 02:46:43;;;;;;;60.88;22.30;;;13.00;99.90;;;;;;5070940;28;20378;-72
2022/11/13 02:49:09;;;;;;;53.72;22.55;;;12.90;99.90;;;;;;5069227;28;20550;-72
2022/11/13 02:51:35;;;;;;;57.47;22.90;;;13.00;99.90;;;;;;5076753;28;20133;-73
2022/11/13 02:54:00;;;;;;;47.83;21.17;;;13.00;99.90;;;;;;5094009;28;20403;-72
2022/11/13 02:56:26;;;;;;;55.45;23.17;;;13.00;99.90;;;;;;5072974;28;20038;-73
2022/11/13 02:58:51;;;;;;;56.28;21.95;;;13.00;99.90;;;;;;5091204;28;20031;-72
2022/11/13 03:01:17;;;;;;;54.72;22.40;;;13.00;99.90;;;;;;5093460;28;20486;-72
2022/11/13 03:03:43;;;;;;;55.53;22.60;;;13.00;99.90;;;;;;5077316;28;20050;-72
2022/11/13 03:06:08;;;;;;;53.28;22.90;;;13.00;99.90;;;;;;5078646;28;20031;-72
2022/11/13 03:08:34;;;;;;;51.30;20.77;;;13.00;99.90;;;;;;5096195;28;20460;-72
2022/11/13 03:11:06;;;;;;;57.22;21.55;;;13.00;99.90;;;;;;5097365;28;20023;-72
2022/11/13 03:13:32;;;;;;;46.55;21.00;;;13.00;99.90;;;;;;5092829;28;20210;-72
2022/11/13 03:16:05;;;;;;;47.95;22.05;;;13.00;99.90;;;;;;5096940;28;20275;-73
2022/11/13 03:18:31;;;;;;;52.35;22.42;;;13.00;99.90;;;;;;5093801;28;20106;-72
2022/11/13 03:20:56;;;;;;;54.60;23.45;;;13.00;99.90;;;;;;5094253;28;20106;-72
2022/11/13 03:23:22;;;;;;;49.10;22.13;;;13.00;99.90;;;;;;5078396;28;20026;-72
2022/11/13 03:25:47;;;;;;;57.17;22.52;;;13.00;99.90;;;;;;5095051;28;20194;-72
2022/11/13 03:28:13;;;;;;;48.95;21.23;;;13.10;99.90;;;;;;5096771;28;20418;-72
2022/11/13 03:30:39;;;;;;;44.05;20.95;;;13.00;99.90;;;;;;5089397;28;20035;-72
2022/11/13 03:33:04;;;;;;;46.63;20.80;;;13.10;99.90;;;;;;5074766;28;20073;-72
2022/11/13 03:35:30;;;;;;;43.97;20.42;;;13.10;99.90;;;;;;5092280;28;20100;-73
2022/11/13 03:37:55;;;;;;;46.55;20.15;;;13.10;99.90;;;;;;5095652;28;20041;-72
2022/11/13 03:40:21;;;;;;;42.38;19.58;;;13.20;99.90;;;;;;5094833;28;20042;-72
2022/11/13 03:42:46;;;;;;;34.22;18.33;;;13.20;99.90;;;;;;5096172;28;20071;-73
2022/11/13 03:45:12;;;;;;;44.05;20.90;;;13.20;99.90;;;;;;5095967;28;20940;-72
2022/11/13 03:47:38;;;;;;;40.53;20.40;;;13.20;99.70;;;;;;5078906;28;20031;-72
2022/11/13 03:50:04;;;;;;;41.17;19.58;;;13.20;99.80;;;;;;5093052;28;20020;-73
2022/11/13 03:52:29;;;;;;;40.67;20.75;;;13.20;99.90;;;;;;5097808;28;20551;-72
2022/11/13 03:54:55;;;;;;;47.00;20.55;;;13.10;99.70;;;;;;5096301;28;20040;-73
2022/11/13 03:57:20;;;;;;;42.17;19.55;;;13.10;99.80;;;;;;5097464;28;20028;-72
2022/11/13 03:59:46;;;;;;;44.40;20.65;;;13.20;99.80;;;;;;5092461;28;20351;-72
2022/11/13 04:02:12;;;;;;;44.08;19.15;;;13.20;99.70;;;;;;5077614;28;20027;-72
2022/11/13 04:04:37;;;;;;;39.83;18.90;;;13.20;99.70;;;;;;5074173;28;20086;-72
2022/11/13 04:07:03;;;;;;;46.10;20.20;;;13.30;99.60;;;;;;5096372;28;20043;-72
2022/11/13 04:09:28;;;;;;;44.92;20.05;;;13.20;99.50;;;;;;5092617;28;20028;-72
2022/11/13 04:11:54;;;;;;;40.55;18.55;;;13.20;99.50;;;;;;5096427;28;20156;-72
2022/11/13 04:14:19;;;;;;;34.85;17.88;;;13.20;99.50;;;;;;5073985;28;20107;-72
2022/11/13 04:16:45;;;;;;;35.53;19.05;;;13.30;99.40;;;;;;5096551;28;20027;-72
2022/11/13 04:19:11;;;;;;;40.75;18.65;;;13.30;99.10;;;;;;5096900;28;20072;-72
2022/11/13 04:21:36;;;;;;;39.80;20.95;;;13.20;99.00;;;;;;5095754;28;20092;-73
2022/11/13 04:24:02;;;;;;;44.08;19.88;;;13.20;99.20;;;;;;5096122;28;20035;-73
2022/11/13 04:26:28;;;;;;;44.90;21.50;;;13.10;99.40;;;;;;5075240;28;20123;-73
2022/11/13 04:28:53;;;;;;;42.83;20.33;;;13.10;99.50;;;;;;5094592;28;20075;-72
2022/11/13 04:31:19;;;;;;;41.10;20.13;;;13.10;99.60;;;;;;5076655;28;20032;-72
2022/11/13 04:33:44;;;;;;;48.28;21.80;;;13.10;99.60;;;;;;5095049;28;20035;-72
2022/11/13 04:36:10;;;;;;;41.88;20.25;;;13.00;99.60;;;;;;5090043;28;20321;-72
2022/11/13 04:38:36;;;;;;;45.20;20.45;;;13.10;99.60;;;;;;5090493;28;20027;-72
2022/11/13 04:43:45;;;;;;;35.67;17.77;;;13.10;99.50;;;;;;5089341;28;20410;-72
2022/11/13 04:46:11;;;;;;;43.20;19.25;;;13.10;99.50;;;;;;5092775;28;20035;-72
2022/11/13 04:48:36;;;;;;;34.08;17.95;;;13.10;99.40;;;;;;5083776;28;20027;-73
2022/11/13 04:51:02;;;;;;;34.78;18.20;;;13.20;99.30;;;;;;5092040;28;20032;-72
2022/11/13 04:53:28;;;;;;;41.38;19.17;;;13.10;99.00;;;;;;5093629;28;20081;-73
2022/11/13 04:55:54;;;;;;;37.15;18.77;;;13.10;98.90;;;;;;5093194;28;20058;-71
2022/11/13 04:58:19;;;;;;;43.08;18.67;;;13.10;98.90;;;;;;5093716;28;20054;-72
2022/11/13 05:00:45;;;;;;;46.92;20.23;;;13.10;98.80;;;;;;5091879;28;20063;-72
2022/11/13 05:03:11;;;;;;;43.72;19.42;;;13.00;98.90;;;;;;5072748;28;20032;-72
2022/11/13 05:05:36;;;;;;;42.03;19.27;;;13.00;99.20;;;;;;5093438;28;20483;-72
2022/11/13 05:08:02;;;;;;;38.70;18.88;;;13.00;99.20;;;;;;5076816;28;20062;-73
2022/11/13 05:10:27;;;;;;;41.92;18.98;;;13.00;99.20;;;;;;5067118;28;20115;-72
2022/11/13 05:12:55;;;;;;;38.55;19.48;;;13.00;99.20;;;;;;5091820;28;20668;-72
2022/11/13 05:15:21;;;;;;;42.55;18.85;;;12.90;99.30;;;;;;5093600;28;20539;-72
2022/11/13 05:17:48;;;;;;;48.45;20.85;;;12.90;99.10;;;;;;5091039;28;20035;-73
2022/11/13 05:20:13;;;;;;;47.47;20.60;;;12.90;99.20;;;;;;5090858;28;20045;-73
2022/11/13 05:22:39;;;;;;;47.67;21.23;;;12.80;99.30;;;;;;5075998;28;20031;-72
2022/11/13 05:25:05;;;;;;;50.85;20.27;;;12.80;99.30;;;;;;5093880;28;20040;-72
2022/11/13 05:27:30;;;;;;;47.88;21.02;;;12.80;99.30;;;;;;5092372;28;20043;-72
2022/11/13 05:29:56;;;;;;;45.92;21.02;;;12.80;99.40;;;;;;5092097;28;20024;-73
2022/11/13 05:32:22;;;;;;;55.42;22.17;;;12.80;99.50;;;;;;5089869;28;20352;-73
2022/11/13 05:34:47;;;;;;;49.58;20.92;;;12.70;99.50;;;;;;5074580;28;20034;-73
2022/11/13 05:37:13;;;;;;;51.72;21.50;;;12.70;99.60;;;;;;5092254;28;20099;-71
2022/11/13 05:39:39;;;;;;;42.05;19.10;;;12.70;99.60;;;;;;5093476;28;20234;-72
2022/11/13 05:42:04;;;;;;;43.17;19.67;;;12.80;99.60;;;;;;5074735;28;20254;-72
2022/11/13 05:44:30;;;;;;;47.75;20.58;;;12.80;99.30;;;;;;5075013;28;20023;-72
2022/11/13 05:46:55;;;;;;;58.72;20.83;;;12.70;99.20;;;;;;5092803;28;20110;-73
2022/11/13 05:49:21;;;;;;;51.50;20.35;;;12.70;99.40;;;;;;5093450;28;20026;-73
2022/11/13 05:51:47;;;;;;;42.67;19.02;;;12.70;99.60;;;;;;5093383;28;20027;-72
2022/11/13 05:54:12;;;;;;;49.15;18.83;;;12.70;99.50;;;;;;5094112;28;20031;-72
2022/11/13 05:56:39;;;;;;;47.53;18.60;;;12.60;99.50;;;;;;5094012;28;20490;-72
2022/11/13 05:59:05;;;;;;;48.42;19.60;;;12.50;99.60;;;;;;5092685;28;20027;-71
2022/11/13 06:01:34;;;;;;;52.53;19.63;;;12.50;99.60;;;;;;5086676;28;20220;-72
2022/11/13 06:04:00;;;;;;;49.83;19.85;;;12.50;99.60;;;;;;5072713;28;20154;-72
2022/11/13 06:06:28;;;;;;;56.70;21.13;;;12.50;99.60;;;;;;5072516;28;20575;-73
2022/11/13 06:08:55;;;;;;;48.38;19.35;;;12.50;99.80;;;;;;5093865;28;20032;-72
2022/11/13 06:11:24;;;;;;;62.58;19.90;;;12.50;99.70;;;;;;5093538;28;20470;-72
2022/11/13 06:13:50;;;;;;;53.88;20.15;;;12.40;99.60;;;;;;5079025;28;20107;-72
2022/11/13 06:16:25;;;;;;;58.90;18.63;;;12.40;99.80;;;;;;5094269;28;20418;-72
2022/11/13 06:18:56;;;;;;;58.42;19.05;;;12.40;99.80;;;;;;5097469;28;20099;-72
2022/11/13 06:21:24;;;;;;;55.60;17.83;;;12.30;99.80;;;;;;5094150;28;20123;-72
2022/11/13 06:23:49;;;;;;;54.25;17.30;;;12.30;99.90;;;;;;5077592;28;20535;-72
2022/11/13 06:26:21;;;;;;;46.47;16.08;;;12.20;99.90;;;;;;5094581;28;20477;-72
2022/11/13 06:28:47;;;;;;;55.75;16.77;;;12.20;99.90;;;;;;5095988;28;20204;-72
2022/11/13 06:31:14;;;;;;;47.60;17.73;;;12.30;99.90;;;;;;5094223;28;20440;-72
2022/11/13 06:33:41;;;;;;;43.65;15.63;;;12.20;99.90;;;;;;5095951;28;20044;-71
2022/11/13 06:36:10;;;;;;;41.03;16.75;;;12.30;99.90;;;;;;5093790;28;20339;-72
2022/11/13 06:38:37;;;;;;;46.03;17.33;;;12.30;99.80;;;;;;5078400;28;20452;-73
2022/11/13 06:41:04;;;;;;;53.90;16.67;;;12.20;99.80;;;;;;5092750;28;20427;-72
2022/11/13 06:43:30;;;;;;;50.00;17.33;;;12.20;99.80;;;;;;5093964;28;20507;-72
2022/11/13 06:45:57;;;;;;;46.45;16.70;;;12.20;99.90;;;;;;5094141;28;20039;-72
2022/11/13 06:48:22;;;;;;;62.13;17.88;;;12.20;99.90;;;;;;5078181;28;20470;-72
2022/11/13 06:50:48;;;;;;;59.40;17.55;;;12.30;99.80;;;;;;5096146;28;20097;-72
2022/11/13 06:53:14;;;;;;;59.80;17.17;;;12.20;99.80;;;;;;5091178;28;20024;-72
2022/11/13 06:55:45;;;;;;;52.67;17.23;;;12.10;99.90;;;;;;5094919;28;20194;-73
2022/11/13 06:58:11;;;;;;;50.03;15.43;;;12.10;99.90;;;;;;5074938;28;20566;-71
2022/11/13 07:00:37;;;;;;;44.97;16.85;;;12.20;99.90;;;;;;5074109;28;20046;-72
2022/11/13 07:03:03;;;;;;;39.33;16.17;;;12.20;99.90;;;;;;5093197;28;20027;-72
2022/11/13 07:05:28;;;;;;;47.70;14.38;;;12.20;99.80;;;;;;5093752;28;20536;-72
2022/11/13 07:07:54;;;;;;;41.42;13.68;;;12.20;99.80;;;;;;5090199;28;20035;-72
2022/11/13 07:10:20;;;;;;;38.55;13.10;;;12.10;99.70;;;;;;5086747;28;20043;-72
2022/11/13 07:12:45;;;;;;;44.83;14.15;;;12.10;99.80;;;;;;5074450;28;20047;-72
2022/11/13 07:15:11;;;;;;;47.80;13.93;;;12.00;99.80;;;;;;5089122;28;20432;-72
2022/11/13 07:17:36;;;;;;;49.78;14.85;;;11.90;99.90;;;;;;5095754;28;20047;-72
2022/11/13 07:20:03;;;;;;;47.35;14.20;;;11.90;99.90;;;;;;5078606;28;20023;-72
2022/11/13 07:22:29;;;;;;;37.30;12.85;;;11.90;99.90;;;;;;5089987;28;20106;-72
2022/11/13 07:24:55;;;;;;;40.88;13.57;;;11.90;99.90;;;;;;5088269;28;20100;-72
2022/11/13 07:27:21;;;;;;;36.47;12.27;;;12.00;99.90;;;;;;5090345;28;20637;-72
2022/11/13 07:29:47;;;;;;;36.13;12.20;;;12.00;99.90;;;;;;5086420;28;20055;-73
2022/11/13 07:32:12;;;;;;;35.42;12.70;;;12.00;99.90;;;;;;5073835;28;20031;-72
2022/11/13 07:34:38;;;;;;;43.75;13.20;;;12.00;99.90;;;;;;5077951;28;20050;-72
2022/11/13 07:37:05;;;;;;;34.70;12.90;;;12.00;99.90;;;;;;5095141;28;20638;-72
2022/11/13 07:39:31;;;;;;;34.22;12.98;;;11.90;99.90;;;;;;5075937;28;20111;-73
2022/11/13 07:41:57;;;;;;;35.72;11.70;;;11.90;99.90;;;;;;5093665;28;20055;-72
2022/11/13 07:44:23;;;;;;;34.90;11.75;;;11.90;99.90;;;;;;5088678;28;20123;-72
2022/11/13 07:46:48;;;;;;;33.20;12.10;;;11.90;99.90;;;;;;5092819;28;20039;-73
2022/11/13 07:49:14;;;;;;;27.52;11.25;;;11.90;99.90;;;;;;5077276;28;20023;-72
2022/11/13 07:51:40;;;;;;;31.13;11.40;;;11.90;99.90;;;;;;5093191;28;20050;-73
2022/11/13 07:54:05;;;;;;;29.63;10.80;;;11.90;99.90;;;;;;5077361;28;20032;-72
2022/11/13 07:56:31;;;;;;;20.63;9.48;;;12.10;99.90;;;;;;5094860;28;20080;-72
2022/11/13 07:58:57;;;;;;;23.60;9.77;;;12.10;99.90;;;;;;5086242;28;20103;-72
2022/11/13 08:01:22;;;;;;;26.15;9.68;;;12.00;99.50;;;;;;5078275;28;20055;-72
2022/11/13 08:03:48;;;;;;;20.80;9.40;;;11.90;99.40;;;;;;5060793;28;20962;-74
2022/11/13 08:06:13;;;;;;;29.05;9.88;;;11.80;99.50;;;;;;5073601;28;20051;-73
2022/11/13 08:08:39;;;;;;;35.60;10.32;;;11.80;99.70;;;;;;5080863;28;20032;-72
2022/11/13 08:11:06;;;;;;;24.92;10.20;;;11.70;99.80;;;;;;5067256;28;20047;-73
2022/11/13 08:13:33;;;;;;;30.05;9.85;;;11.70;99.90;;;;;;5077825;27;20027;-73
2022/11/13 08:16:00;;;;;;;32.00;10.10;;;11.70;99.90;;;;;;5091628;28;20034;-74
2022/11/13 08:18:27;;;;;;;28.10;8.77;;;11.70;99.90;;;;;;5093090;28;20304;-73
2022/11/13 08:20:53;;;;;;;18.25;9.52;;;11.60;99.90;;;;;;5090593;28;20027;-74
2022/11/13 08:23:18;;;;;;;25.42;9.15;;;11.50;99.80;;;;;;5082010;28;20027;-73
2022/11/13 08:25:44;;;;;;;20.83;9.07;;;11.50;99.90;;;;;;5098715;28;20043;-72
2022/11/13 08:28:10;;;;;;;26.50;9.73;;;11.50;99.90;;;;;;5098187;28;20498;-72
2022/11/13 08:30:36;;;;;;;22.10;10.02;;;11.60;99.90;;;;;;5080719;28;20061;-73
2022/11/13 08:33:03;;;;;;;19.35;9.43;;;11.50;99.90;;;;;;5097603;28;20028;-71
2022/11/13 08:35:28;;;;;;;20.95;8.93;;;11.60;99.90;;;;;;5094520;27;20039;-72
2022/11/13 08:37:54;;;;;;;16.38;8.15;;;11.70;99.90;;;;;;5083564;28;21154;-71
2022/11/13 08:40:20;;;;;;;18.95;8.63;;;11.60;99.70;;;;;;5096348;28;20395;-73
2022/11/13 08:42:46;;;;;;;17.55;9.27;;;11.70;99.70;;;;;;5092472;28;20429;-73
2022/11/13 08:45:11;;;;;;;16.95;8.77;;;11.70;99.70;;;;;;5091678;28;20344;-72
2022/11/13 08:47:37;;;;;;;21.42;8.77;;;11.70;99.70;;;;;;5093754;28;20035;-72
2022/11/13 08:50:04;;;;;;;23.73;9.95;;;11.70;99.70;;;;;;5075005;28;20089;-73
2022/11/13 08:52:30;;;;;;;21.42;9.80;;;11.70;99.70;;;;;;5090148;28;20144;-71
2022/11/13 08:54:56;;;;;;;18.80;9.40;;;11.70;99.70;;;;;;5094196;28;20436;-72
2022/11/13 08:57:21;;;;;;;23.25;9.88;;;11.70;99.70;;;;;;5070183;28;20489;-71
2022/11/13 08:59:47;;;;;;;18.65;9.20;;;11.80;99.70;;;;;;5082938;28;20026;-71
2022/11/13 09:02:14;;;;;;;18.83;9.60;;;11.80;99.60;;;;;;5092438;28;20027;-71
2022/11/13 09:04:40;;;;;;;24.02;9.38;;;11.80;99.60;;;;;;5086037;28;20035;-71
2022/11/13 09:07:05;;;;;;;16.88;8.75;;;11.90;99.40;;;;;;5092787;28;20040;-71
2022/11/13 09:09:31;;;;;;;20.05;8.90;;;11.90;99.40;;;;;;5069633;28;20495;-71
2022/11/13 09:11:57;;;;;;;17.33;8.73;;;11.90;99.20;;;;;;5078054;28;20504;-71
2022/11/13 09:14:23;;;;;;;17.92;8.18;;;12.00;99.30;;;;;;5092778;28;20048;-71
2022/11/13 09:16:49;;;;;;;14.85;7.30;;;12.30;99.00;;;;;;5094509;28;20069;-71
2022/11/13 09:19:15;;;;;;;13.57;7.30;;;12.50;98.50;;;;;;5093043;28;20127;-70
2022/11/13 09:21:40;;;;;;;11.38;7.18;;;12.80;97.60;;;;;;5088745;28;20137;-71
2022/11/13 09:24:06;;;;;;;11.15;6.82;;;13.00;96.90;;;;;;5092792;28;20080;-71
2022/11/13 09:26:34;;;;;;;23.02;8.50;;;13.10;96.20;;;;;;5092581;28;20490;-71
2022/11/13 09:28:59;;;;;;;11.38;7.35;;;13.00;95.80;;;;;;5089110;28;20163;-72
2022/11/13 09:31:25;;;;;;;13.82;8.20;;;13.10;96.20;;;;;;5093317;28;20114;-71
2022/11/13 09:33:51;;;;;;;13.63;7.82;;;13.10;96.50;;;;;;5090639;28;20122;-71
2022/11/13 09:36:17;;;;;;;11.80;7.38;;;13.30;96.00;;;;;;5090861;28;20429;-72
2022/11/13 09:38:43;;;;;;;15.27;7.70;;;13.40;95.60;;;;;;5086513;28;20102;-71
2022/11/13 09:41:39;;;;;;;12.88;7.40;;;13.50;94.70;;;;;;5080591;28;20615;-71
2022/11/13 09:44:17;;;;;;;10.50;7.50;;;13.70;95.10;;;;;;5069821;28;20069;-70
2022/11/13 09:47:11;;;;;;;15.32;9.02;;;13.90;94.50;;;;;;5055576;28;20146;-71
2022/11/13 09:49:49;;;;;;;17.42;8.43;;;13.90;93.40;;;;;;5082201;28;20111;-70
2022/11/13 09:52:22;;;;;;;13.80;8.50;;;13.90;93.30;;;;;;5082499;27;20064;-70
2022/11/13 09:54:47;;;;;;;14.82;8.68;;;13.70;93.60;;;;;;5082195;28;20039;-71
2022/11/13 09:57:25;;;;;;;13.43;8.57;;;13.80;94.00;;;;;;5080961;28;20076;-72
2022/11/13 10:00:02;;;;;;;11.15;7.68;;;13.90;93.90;;;;;;5079203;27;20395;-74
2022/11/13 10:03:00;;;;;;;15.98;9.27;;;14.00;93.80;;;;;;5082414;28;20050;-72
2022/11/13 10:05:44;;;;;;;18.42;9.40;;;13.90;93.80;;;;;;5063781;28;20051;-71
2022/11/13 10:08:15;;;;;;;12.38;8.30;;;14.10;93.80;;;;;;5084111;28;20133;-71
2022/11/13 10:11:07;;;;;;;16.15;8.52;;;14.20;93.20;;;;;;5093142;28;20128;-70
2022/11/13 10:13:44;;;;;;;13.32;8.70;;;14.00;93.00;;;;;;5077454;28;20368;-71
2022/11/13 10:16:43;;;;;;;20.42;10.07;;;14.30;93.10;;;;;;5092670;27;20029;-71
2022/11/13 10:19:25;;;;;;;18.85;9.93;;;14.10;92.70;;;;;;5095108;27;20039;-72
2022/11/13 10:22:03;;;;;;;15.15;8.55;;;14.10;93.30;;;;;;5090793;28;20030;-71
2022/11/13 10:24:36;;;;;;;15.07;8.98;;;14.20;93.40;;;;;;5091904;28;20337;-71
2022/11/13 10:27:08;;;;;;;14.10;7.53;;;14.50;93.30;;;;;;5088502;28;20426;-70
2022/11/13 10:29:34;;;;;;;14.57;8.43;;;14.70;92.60;;;;;;5097106;27;20055;-71
2022/11/13 10:32:23;;;;;;;14.80;7.93;;;14.90;92.00;;;;;;5095497;27;20067;-70
2022/11/13 10:35:21;;;;;;;13.77;8.23;;;14.80;91.60;;;;;;5074832;28;20112;-72
2022/11/13 10:38:18;;;;;;;14.05;8.00;;;14.80;92.00;;;;;;5088704;28;20035;-71
2022/11/13 10:40:43;;;;;;;12.88;7.78;;;15.00;91.90;;;;;;5094910;28;21184;-71
2022/11/13 10:43:21;;;;;;;12.57;7.50;;;15.10;90.90;;;;;;5089005;27;20024;-73
2022/11/13 10:45:54;;;;;;;14.55;8.60;;;15.30;91.10;;;;;;5089072;28;20076;-72
2022/11/13 10:48:26;;;;;;;13.80;9.05;;;15.50;90.30;;;;;;5085766;27;20028;-73
2022/11/13 10:51:01;;;;;;;12.50;8.05;;;15.50;90.10;;;;;;5082123;28;20350;-73
2022/11/13 10:53:37;;;;;;;13.98;8.93;;;15.80;89.20;;;;;;5087462;28;20126;-72
2022/11/13 10:56:13;;;;;;;14.02;8.77;;;15.90;88.70;;;;;;5087508;28;20035;-72
2022/11/13 10:58:39;;;;;;;11.93;7.82;;;15.70;88.70;;;;;;5085013;27;20028;-72
2022/11/13 11:01:22;;;;;;;16.92;9.85;;;15.80;89.50;;;;;;5068712;28;20036;-72
2022/11/13 11:03:49;;;;;;;11.73;8.55;;;15.90;87.90;;;;;;5079736;27;20043;-72
2022/11/13 11:06:15;;;;;;;14.43;8.32;;;16.00;89.00;;;;;;5089938;27;20078;-72
2022/11/13 11:08:40;;;;;;;12.80;8.45;;;16.30;87.80;;;;;;5091433;28;20440;-73
2022/11/13 11:14:09;;;;;;;;;;;16.60;85.70;;;;;;5090944;28;20030;-73
2022/11/13 11:16:35;;;;;;;13.30;7.93;;;16.70;85.70;;;;;;5090884;28;19912;-72
2022/11/13 11:19:07;;;;;;;11.77;7.85;;;16.60;85.80;;;;;;4741729;28;9999819;-72
2022/11/13 11:21:36;;;;;;;13.95;8.45;;;16.90;86.00;;;;;;5077495;28;20510;-73
2022/11/13 11:24:13;;;;;;;14.20;8.40;;;16.80;85.60;;;;;;5089733;28;20050;-73
2022/11/13 11:26:50;;;;;;;11.35;8.32;;;16.80;85.70;;;;;;5093534;28;20032;-74
2022/11/13 11:29:33;;;;;;;11.45;8.73;;;16.90;85.00;;;;;;5088360;28;20055;-73
2022/11/13 11:32:28;;;;;;;11.60;8.05;;;17.10;83.90;;;;;;5077920;28;20354;-73
2022/11/13 11:35:18;;;;;;;10.60;7.85;;;17.30;83.60;;;;;;5070827;28;20555;-72
2022/11/13 11:38:07;;;;;;;11.43;8.05;;;17.20;83.20;;;;;;5092924;28;20024;-72
2022/11/13 11:40:40;;;;;;;15.43;9.90;;;17.00;86.20;;;;;;5092167;28;20054;-73
2022/11/13 11:43:22;;;;;;;14.30;8.95;;;16.70;85.80;;;;;;5090859;28;20146;-75
2022/11/13 11:45:48;;;;;;;14.57;9.27;;;16.90;85.70;;;;;;5090361;28;20513;-73
2022/11/13 11:48:29;;;;;;;14.10;8.10;;;17.00;84.80;;;;;;5091724;28;20081;-73
2022/11/13 11:50:55;;;;;;;;;;;17.00;84.50;;;;;;5067684;28;20036;-73
2022/11/13 11:53:32;;;;;;;12.20;8.05;;;17.10;85.60;;;;;;5092637;28;19918;-73
2022/11/13 11:56:32;;;;;;;11.13;7.95;;;17.30;84.70;;;;;;5065543;28;20035;-73
2022/11/13 11:59:40;;;;;;;10.98;7.72;;;17.30;84.40;;;;;;5077530;28;20490;-74
2022/11/13 12:02:08;;;;;;;10.05;7.18;;;17.00;87.60;;;;;;5041471;28;20037;-73
2022/11/13 12:04:51;;;;;;;11.20;7.43;;;16.90;86.10;;;;;;5070214;28;20427;-73
2022/11/13 12:07:37;;;;;;;9.73;6.82;;;16.80;89.00;;;;;;5089621;28;20039;-73
2022/11/13 12:10:50;;;;;;;11.55;6.68;;;16.90;86.70;;;;;;5079493;28;20178;-73
2022/11/13 12:13:30;;;;;;;9.57;6.88;;;16.90;87.10;;;;;;5024943;28;20036;-73
2022/11/13 12:15:59;;;;;;;12.82;6.93;;;17.10;86.70;;;;;;5086807;28;20028;-73
2022/11/13 12:18:41;;;;;;;13.15;6.70;;;17.30;86.20;;;;;;5095770;28;20294;-73
2022/11/13 12:21:26;;;;;;;12.88;7.97;;;17.20;85.50;;;;;;5095729;28;20020;-73
2022/11/13 12:24:13;;;;;;;13.55;6.93;;;17.30;84.70;;;;;;5094452;28;20078;-73
2022/11/13 12:27:19;;;;;;;12.45;7.10;;;17.60;83.00;;;;;;5089046;28;20143;-73
2022/11/13 12:30:01;;;;;;;10.18;6.95;;;17.80;82.40;;;;;;5086875;28;20114;-73
2022/11/13 12:32:48;;;;;;;10.82;6.95;;;17.60;82.60;;;;;;5091154;28;20076;-74
2022/11/13 12:35:18;;;;;;;9.60;6.45;;;17.40;82.50;;;;;;5074966;28;20500;-73
2022/11/13 12:38:02;;;;;;;12.50;6.50;;;17.30;84.00;;;;;;5093417;28;20034;-73
2022/11/13 12:40:37;;;;;;;14.57;6.95;;;17.30;83.00;;;;;;5068410;28;20016;-73
2022/11/13 12:43:28;;;;;;;13.35;6.50;;;17.30;83.20;;;;;;5085974;28;20031;-74
2022/11/13 12:45:55;;;;;;;;;;;17.70;83.40;;;;;;5096813;28;20030;-73
2022/11/13 12:48:39;;;;;;;10.63;6.72;;;18.10;81.10;;;;;;5096776;28;20409;-73